Time;durP1;ratioP1;P1;durP2;ratioP2;P2;SDS_P1;SDS_P2;PMS_P1;PMS_P2;Temp;Humidity;BMP_temperature;BMP_pressure;BME280_temperature;BME280_humidity;BME280_pressure;Samples;Min_cycle;Max_cycle;Signal;HPM_P1;HPM_P2
2022/02/24 00:01:08;;;;;;;27.52;16.85;;;;;;;6.95;100.00;101685.16;5135087;27;20147;-72
2022/02/24 00:03:53;;;;;;;26.08;16.20;;;;;;;7.01;100.00;101681.75;5135335;27;20030;-71
2022/02/24 00:06:39;;;;;;;22.25;14.50;;;;;;;6.77;100.00;101692.75;5134894;27;20034;-70
2022/02/24 00:09:25;;;;;;;24.88;13.88;;;;;;;6.79;100.00;101684.94;5120268;27;20088;-71
2022/02/24 00:12:11;;;;;;;18.15;12.13;;;;;;;6.69;100.00;101688.28;5119884;27;20080;-71
2022/02/24 00:14:58;;;;;;;16.60;11.55;;;;;;;6.59;100.00;101687.25;5134976;27;20106;-71
2022/02/24 00:17:43;;;;;;;18.38;12.25;;;;;;;6.61;100.00;101687.28;5120638;27;20027;-71
2022/02/24 00:20:29;;;;;;;15.07;10.40;;;;;;;6.36;100.00;101691.28;5120619;27;20113;-71
2022/02/24 00:23:15;;;;;;;13.18;9.15;;;;;;;6.12;100.00;101692.63;5134885;27;20035;-69
2022/02/24 00:26:01;;;;;;;15.20;9.73;;;;;;;6.20;100.00;101688.41;5120307;27;20054;-70
2022/02/24 00:28:47;;;;;;;13.77;9.75;;;;;;;6.16;100.00;101684.91;5135872;27;20088;-70
2022/02/24 00:31:33;;;;;;;15.02;8.95;;;;;;;6.30;100.00;101682.53;5135700;27;20015;-70
2022/02/24 00:34:22;;;;;;;12.52;8.65;;;;;;;6.51;100.00;101683.69;5119651;27;20031;-70
2022/02/24 00:37:08;;;;;;;11.60;8.15;;;;;;;6.65;100.00;101681.28;5120944;27;20391;-70
2022/02/24 00:39:54;;;;;;;12.10;8.10;;;;;;;6.75;100.00;101677.94;5136211;27;20023;-70
2022/02/24 00:42:40;;;;;;;12.18;7.50;;;;;;;6.33;100.00;101677.34;5120523;27;20039;-70
2022/02/24 00:45:26;;;;;;;9.25;6.75;;;;;;;6.54;100.00;101677.63;5134604;27;20030;-70
2022/02/24 00:48:12;;;;;;;9.95;6.88;;;;;;;6.26;100.00;101672.91;5120729;27;20038;-70
2022/02/24 00:50:58;;;;;;;10.40;6.60;;;;;;;6.58;100.00;101677.72;5134724;27;20027;-69
2022/02/24 00:53:43;;;;;;;10.20;7.05;;;;;;;6.95;100.00;101681.69;5134428;27;20467;-70
2022/02/24 00:56:29;;;;;;;10.52;7.45;;;;;;;6.97;100.00;101679.97;5134702;27;20355;-69
2022/02/24 00:59:15;;;;;;;9.88;7.00;;;;;;;6.92;100.00;101682.53;5134046;27;20498;-70
2022/02/24 01:02:01;;;;;;;12.77;7.30;;;;;;;6.79;100.00;101679.75;5119629;27;20028;-70
2022/02/24 01:04:47;;;;;;;12.73;7.65;;;;;;;6.94;100.00;101685.13;5120135;28;20169;-70
2022/02/24 01:07:32;;;;;;;9.30;7.07;;;;;;;7.05;100.00;101693.97;5134893;28;20401;-70
2022/02/24 01:10:18;;;;;;;11.25;7.05;;;;;;;7.07;100.00;101697.47;5135612;28;20362;-71
2022/02/24 01:13:04;;;;;;;10.25;7.07;;;;;;;7.05;100.00;101699.16;5134563;28;20023;-70
2022/02/24 01:15:50;;;;;;;12.13;7.45;;;;;;;6.98;100.00;101697.34;5135252;27;20070;-70
2022/02/24 01:18:36;;;;;;;10.15;7.28;;;;;;;6.69;100.00;101696.09;5138790;27;20041;-70
2022/02/24 01:21:21;;;;;;;12.43;7.57;;;;;;;6.60;100.00;101709.88;5124515;27;20091;-70
2022/02/24 01:24:07;;;;;;;12.02;7.68;;;;;;;6.65;100.00;101716.00;5138269;27;20067;-70
2022/02/24 01:26:53;;;;;;;11.93;7.47;;;;;;;6.59;100.00;101725.47;5139126;27;20124;-70
2022/02/24 01:29:39;;;;;;;10.85;7.38;;;;;;;6.55;100.00;101719.31;5138131;27;20030;-70
2022/02/24 01:32:26;;;;;;;12.80;8.50;;;;;;;6.46;100.00;101726.09;5138452;27;20113;-70
2022/02/24 01:35:11;;;;;;;13.32;8.50;;;;;;;6.30;100.00;101729.34;5123312;27;20098;-70
2022/02/24 01:37:57;;;;;;;16.10;8.60;;;;;;;6.39;100.00;101732.94;5138375;27;20042;-69
2022/02/24 01:40:43;;;;;;;13.13;8.70;;;;;;;6.54;100.00;101742.72;5138332;27;20125;-70
2022/02/24 01:43:29;;;;;;;14.55;9.90;;;;;;;6.39;100.00;101748.56;5138314;27;20018;-70
2022/02/24 01:46:16;;;;;;;16.65;10.25;;;;;;;6.32;100.00;101748.47;5138101;27;20023;-70
2022/02/24 01:49:04;;;;;;;14.93;10.00;;;;;;;6.44;100.00;101748.66;5137872;27;20488;-69
2022/02/24 01:51:50;;;;;;;14.27;9.20;;;;;;;6.42;100.00;101752.94;5138515;27;20028;-71
2022/02/24 01:54:36;;;;;;;12.38;8.68;;;;;;;6.27;100.00;101761.38;5137465;27;20019;-70
2022/02/24 01:57:22;;;;;;;12.82;9.13;;;;;;;6.28;100.00;101768.38;5139197;27;20030;-71
2022/02/24 02:00:09;;;;;;;11.63;8.30;;;;;;;6.33;100.00;101768.41;5137336;27;20047;-70
2022/02/24 02:02:54;;;;;;;11.65;8.02;;;;;;;6.06;100.00;101768.84;5138215;27;20428;-70
2022/02/24 02:05:40;;;;;;;14.95;8.70;;;;;;;6.22;100.00;101770.00;5137662;27;20023;-70
2022/02/24 02:08:27;;;;;;;12.35;8.43;;;;;;;6.22;100.00;101768.25;5137819;27;20037;-70
2022/02/24 02:11:12;;;;;;;12.35;8.13;;;;;;;6.36;100.00;101771.97;5137364;27;20106;-69
2022/02/24 02:13:58;;;;;;;11.02;8.05;;;;;;;6.20;100.00;101774.28;5137452;27;20367;-70
2022/02/24 02:16:46;;;;;;;14.27;8.65;;;;;;;6.16;100.00;101788.97;5124222;27;20096;-70
2022/02/24 02:19:31;;;;;;;12.70;8.45;;;;;;;6.00;100.00;101786.94;5137502;27;20026;-70
2022/02/24 02:22:17;;;;;;;13.80;8.70;;;;;;;6.39;100.00;101797.16;5137593;27;20511;-70
2022/02/24 02:25:07;;;;;;;12.77;8.70;;;;;;;6.41;100.00;101791.13;5137931;27;20038;-70
2022/02/24 02:27:53;;;;;;;13.85;8.40;;;;;;;6.33;100.00;101802.25;5136598;27;20019;-70
2022/02/24 02:30:38;;;;;;;13.02;8.70;;;;;;;6.60;100.00;101800.09;5135702;27;20413;-70
2022/02/24 02:33:24;;;;;;;12.13;8.90;;;;;;;6.62;100.00;101801.00;5137122;27;20110;-70
2022/02/24 02:36:10;;;;;;;12.40;8.02;;;;;;;6.25;100.00;101803.84;5122380;27;20506;-70
2022/02/24 02:38:56;;;;;;;14.90;8.85;;;;;;;6.55;100.00;101802.63;5138064;27;20119;-70
2022/02/24 02:41:45;;;;;;;13.68;7.30;;;;;;;6.59;100.00;101807.03;5121873;27;20035;-70
2022/02/24 02:44:31;;;;;;;13.88;7.78;;;;;;;6.51;100.00;101805.19;5138023;27;20034;-69
2022/02/24 02:47:17;;;;;;;10.57;7.05;;;;;;;6.55;100.00;101813.03;5136843;27;20121;-70
2022/02/24 02:50:04;;;;;;;10.50;7.03;;;;;;;6.35;100.00;101826.59;5137023;27;20019;-70
2022/02/24 02:52:50;;;;;;;11.45;6.82;;;;;;;6.36;100.00;101823.13;5135277;27;20439;-71
2022/02/24 02:55:35;;;;;;;12.85;6.93;;;;;;;6.70;100.00;101825.41;5136802;27;20027;-71
2022/02/24 02:58:21;;;;;;;8.95;6.20;;;;;;;6.43;100.00;101818.03;5136996;27;20038;-70
2022/02/24 03:01:07;;;;;;;10.27;6.30;;;;;;;6.39;100.00;101823.19;5136383;27;20051;-70
2022/02/24 03:03:54;;;;;;;9.63;6.57;;;;;;;6.50;100.00;101825.13;5136579;27;20039;-71
2022/02/24 03:06:39;;;;;;;11.20;6.50;;;;;;;6.38;100.00;101826.66;5136227;27;20019;-71
2022/02/24 03:09:25;;;;;;;8.88;6.28;;;;;;;6.28;100.00;101846.44;5136640;27;20034;-70
2022/02/24 03:12:12;;;;;;;10.88;6.95;;;;;;;6.50;100.00;101837.25;5136606;27;20027;-70
2022/02/24 03:14:58;;;;;;;11.40;6.90;;;;;;;6.61;100.00;101838.31;5122736;27;20466;-69
2022/02/24 03:17:46;;;;;;;11.93;7.32;;;;;;;6.97;100.00;101846.69;5135731;27;20446;-70
2022/02/24 03:20:32;;;;;;;10.98;7.78;;;;;;;7.05;100.00;101835.53;5136240;27;20103;-70
2022/02/24 03:23:19;;;;;;;12.77;7.63;;;;;;;7.13;100.00;101833.03;5136063;27;20032;-70
2022/02/24 03:26:04;;;;;;;12.15;8.00;;;;;;;7.28;100.00;101846.28;5136390;27;20015;-70
2022/02/24 03:28:50;;;;;;;12.10;8.00;;;;;;;7.05;100.00;101839.88;5120908;27;20023;-71
2022/02/24 03:31:36;;;;;;;12.77;7.93;;;;;;;7.09;100.00;101839.06;5137293;27;20015;-71
2022/02/24 03:34:22;;;;;;;12.55;7.93;;;;;;;6.77;100.00;101843.78;5135869;27;20035;-71
2022/02/24 03:37:08;;;;;;;13.75;7.85;;;;;;;6.99;100.00;101837.19;5135732;27;20031;-70
2022/02/24 03:39:53;;;;;;;12.25;8.40;;;;;;;6.99;100.00;101840.66;5135405;27;20088;-70
2022/02/24 03:42:40;;;;;;;11.25;7.93;;;;;;;6.76;100.00;101834.25;5136182;27;20109;-70
2022/02/24 03:45:26;;;;;;;14.38;8.57;;;;;;;6.64;100.00;101835.75;5135811;27;20027;-69
2022/02/24 03:48:11;;;;;;;15.88;9.15;;;;;;;6.89;100.00;101833.56;5135648;27;20439;-69
2022/02/24 03:50:57;;;;;;;15.02;9.13;;;;;;;7.13;100.00;101820.91;5137181;27;20031;-69
2022/02/24 03:53:44;;;;;;;16.48;9.30;;;;;;;7.13;100.00;101822.59;5136079;27;20111;-70
2022/02/24 03:56:29;;;;;;;15.07;9.73;;;;;;;7.38;100.00;101824.69;5136416;27;20023;-70
2022/02/24 03:59:15;;;;;;;13.95;8.88;;;;;;;7.21;100.00;101840.13;5135397;27;20108;-70
2022/02/24 04:02:01;;;;;;;13.15;8.88;;;;;;;7.11;100.00;101845.19;5135538;27;20027;-69
2022/02/24 04:04:46;;;;;;;14.15;8.77;;;;;;;6.70;100.00;101854.97;5135449;27;20188;-69
2022/02/24 04:07:32;;;;;;;16.25;9.07;;;;;;;6.55;100.00;101854.69;5135250;27;20027;-70
2022/02/24 04:10:18;;;;;;;18.50;9.10;;;;;;;6.64;100.00;101856.59;5135495;27;20042;-72
2022/02/24 04:13:04;;;;;;;15.30;9.05;;;;;;;6.57;100.00;101859.94;5135690;27;20106;-71
2022/02/24 04:15:50;;;;;;;14.57;8.95;;;;;;;6.56;100.00;101871.19;5121539;27;20023;-71
2022/02/24 04:18:35;;;;;;;15.50;9.27;;;;;;;6.62;100.00;101873.91;5134881;27;20377;-71
2022/02/24 04:21:21;;;;;;;12.82;8.43;;;;;;;6.66;100.00;101879.19;5134897;27;20027;-71
2022/02/24 04:24:07;;;;;;;15.23;9.18;;;;;;;6.68;100.00;101877.50;5135453;27;20038;-71
2022/02/24 04:26:53;;;;;;;14.20;9.40;;;;;;;6.76;100.00;101882.84;5135328;27;20451;-70
2022/02/24 04:29:39;;;;;;;14.50;8.98;;;;;;;6.54;100.00;101875.50;5135290;27;20417;-71
2022/02/24 04:32:25;;;;;;;14.50;8.82;;;;;;;6.51;100.00;101878.94;5135299;27;20054;-71
2022/02/24 04:35:12;;;;;;;16.08;8.88;;;;;;;6.45;100.00;101881.44;5135158;27;20027;-71
2022/02/24 04:37:58;;;;;;;12.50;8.35;;;;;;;6.55;100.00;101887.69;5120750;27;20031;-71
2022/02/24 04:40:44;;;;;;;12.10;8.55;;;;;;;6.69;100.00;101888.78;5134905;27;20091;-71
2022/02/24 04:43:30;;;;;;;14.13;8.95;;;;;;;6.89;100.00;101892.59;5135668;27;20023;-70
2022/02/24 04:46:15;;;;;;;13.32;8.63;;;;;;;6.72;100.00;101905.34;5135231;27;20034;-71
2022/02/24 04:49:01;;;;;;;13.52;9.25;;;;;;;6.67;100.00;101908.72;5120015;27;20019;-71
2022/02/24 04:51:47;;;;;;;11.70;7.88;;;;;;;6.46;100.00;101917.03;5134724;27;20045;-71
2022/02/24 04:54:33;;;;;;;11.07;7.72;;;;;;;6.36;100.00;101916.81;5135728;27;20424;-71
2022/02/24 04:57:19;;;;;;;13.70;9.13;;;;;;;6.52;100.00;101930.16;5134830;27;20031;-71
2022/02/24 05:00:07;;;;;;;14.00;8.65;;;;;;;6.36;100.00;101935.06;5134814;27;20047;-71
2022/02/24 05:02:54;;;;;;;14.02;8.13;;;;;;;6.25;100.00;101941.75;5135294;27;20043;-72
2022/02/24 05:05:39;;;;;;;12.50;8.77;;;;;;;6.47;100.00;101952.59;5134482;28;20093;-71
2022/02/24 05:08:25;;;;;;;14.35;8.75;;;;;;;6.36;100.00;101948.06;5134594;28;20030;-71
2022/02/24 05:11:11;;;;;;;12.10;8.35;;;;;;;6.40;100.00;101952.47;5136074;28;20015;-71
2022/02/24 05:13:57;;;;;;;15.40;9.57;;;;;;;6.59;100.00;101960.66;5134299;28;20099;-71
2022/02/24 05:16:43;;;;;;;24.13;16.65;;;;;;;6.39;100.00;101962.00;5135454;28;20092;-70
2022/02/24 05:19:29;;;;;;;26.58;16.77;;;;;;;6.56;100.00;101970.13;5134695;28;20085;-71
2022/02/24 05:22:14;;;;;;;16.17;9.93;;;;;;;6.55;100.00;101966.66;5119959;28;20031;-71
2022/02/24 05:25:00;;;;;;;14.15;9.68;;;;;;;6.64;100.00;101977.25;5134222;28;20078;-71
2022/02/24 05:27:46;;;;;;;18.98;12.88;;;;;;;6.55;100.00;101971.84;5135153;28;20034;-71
2022/02/24 05:30:32;;;;;;;19.27;13.55;;;;;;;6.54;100.00;101974.44;5134763;28;20016;-71
2022/02/24 05:33:18;;;;;;;22.50;14.93;;;;;;;6.83;100.00;101979.31;5134981;28;20031;-70
2022/02/24 05:36:04;;;;;;;24.45;15.77;;;;;;;6.48;100.00;101976.94;5119770;28;20048;-70
2022/02/24 05:38:51;;;;;;;27.27;18.10;;;;;;;6.41;100.00;101988.06;5134226;28;20358;-71
2022/02/24 05:41:37;;;;;;;30.85;20.67;;;;;;;6.34;100.00;101981.88;5135234;28;20023;-73
2022/02/24 05:44:23;;;;;;;31.05;20.67;;;;;;;6.25;100.00;101992.09;5135585;28;20439;-71
2022/02/24 05:47:08;;;;;;;27.85;19.33;;;;;;;6.39;100.00;101985.44;5133893;28;20079;-71
2022/02/24 05:49:54;;;;;;;23.80;16.10;;;;;;;6.34;100.00;102002.69;5119499;28;20092;-71
2022/02/24 05:52:41;;;;;;;26.30;17.45;;;;;;;6.50;100.00;101999.53;5133879;28;20023;-70
2022/02/24 05:55:26;;;;;;;25.48;17.38;;;;;;;6.62;100.00;102004.09;5118404;28;20023;-72
2022/02/24 05:58:12;;;;;;;26.23;17.40;;;;;;;6.44;100.00;102006.34;5112754;28;20102;-71
2022/02/24 06:00:58;;;;;;;26.38;17.92;;;;;;;6.63;100.00;102013.69;5133260;28;20039;-70
2022/02/24 06:03:44;;;;;;;23.83;15.57;;;;;;;6.57;100.00;102017.03;5135641;27;20076;-70
2022/02/24 06:06:29;;;;;;;21.17;13.82;;;;;;;6.51;100.00;102016.03;5137655;27;20435;-71
2022/02/24 06:09:15;;;;;;;21.40;13.80;;;;;;;6.71;100.00;102020.78;5137540;27;20027;-71
2022/02/24 06:12:01;;;;;;;28.08;17.55;;;;;;;6.73;100.00;102028.63;5137145;27;20087;-71
2022/02/24 06:14:47;;;;;;;25.73;16.20;;;;;;;6.71;100.00;102035.53;5137419;27;20042;-70
2022/02/24 06:17:33;;;;;;;27.77;17.67;;;;;;;6.84;100.00;102040.13;5136910;27;20023;-72
2022/02/24 06:20:18;;;;;;;26.00;16.55;;;;;;;6.93;100.00;102042.88;5136944;27;20450;-70
2022/02/24 06:23:04;;;;;;;23.35;15.23;;;;;;;7.35;100.00;102048.88;5137441;27;20339;-72
2022/02/24 06:25:50;;;;;;;22.70;14.77;;;;;;;7.65;100.00;102039.81;5136610;27;20023;-72
2022/02/24 06:28:36;;;;;;;21.23;14.20;;;;;;;7.87;100.00;102047.06;5122049;27;20058;-72
2022/02/24 06:31:22;;;;;;;22.45;14.48;;;;;;;7.53;100.00;102056.97;5137233;27;20374;-71
2022/02/24 06:34:07;;;;;;;20.58;12.70;;;;;;;7.56;100.00;102055.28;5122995;27;20034;-71
2022/02/24 06:36:53;;;;;;;20.40;12.63;;;;;;;7.46;100.00;102065.53;5136285;27;20034;-71
2022/02/24 06:39:39;;;;;;;20.45;13.23;;;;;;;7.92;100.00;102066.28;5136593;27;20069;-72
2022/02/24 06:42:25;;;;;;;15.68;10.07;;;;;;;7.57;100.00;102077.94;5135897;27;20080;-71
2022/02/24 06:45:11;;;;;;;14.48;9.73;;;;;;;7.70;100.00;102069.44;5137410;27;20362;-71
2022/02/24 06:47:57;;;;;;;10.73;7.78;;;;;;;7.78;100.00;102080.88;5136629;27;20031;-72
2022/02/24 06:50:48;;;;;;;15.10;9.43;;;;;;;7.74;100.00;102079.06;5135947;27;20023;-72
2022/02/24 06:53:33;;;;;;;13.82;8.13;;;;;;;8.05;100.00;102083.00;5136955;27;20469;-71
2022/02/24 06:56:19;;;;;;;12.98;8.50;;;;;;;8.49;100.00;102082.75;5135530;27;20031;-72
2022/02/24 06:59:05;;;;;;;12.70;8.02;;;;;;;8.40;100.00;102089.63;5120452;27;20097;-73
2022/02/24 07:01:51;;;;;;;12.05;7.90;;;;;;;8.23;100.00;102092.00;5136791;27;20035;-71
2022/02/24 07:04:37;;;;;;;13.15;8.55;;;;;;;8.29;100.00;102094.72;5136666;27;20065;-71
2022/02/24 07:07:23;;;;;;;14.98;8.23;;;;;;;8.90;100.00;102097.22;5135084;27;20038;-71
2022/02/24 07:10:11;;;;;;;13.32;8.98;;;;;;;8.64;100.00;102108.22;5138015;27;20019;-71
2022/02/24 07:12:57;;;;;;;14.88;9.10;;;;;;;8.61;100.00;102105.56;5122049;27;20034;-72
2022/02/24 07:15:43;;;;;;;18.15;10.07;;;;;;;8.43;100.00;102103.59;5135735;27;20042;-72
2022/02/24 07:18:29;;;;;;;17.10;11.50;;;;;;;8.46;100.00;102118.44;5135245;27;20031;-71
2022/02/24 07:21:14;;;;;;;20.90;14.30;;;;;;;8.61;100.00;102114.25;5136662;27;20035;-71
2022/02/24 07:24:00;;;;;;;17.73;11.95;;;;;;;9.24;100.00;102121.97;5112836;27;20039;-71
2022/02/24 07:26:46;;;;;;;14.75;10.25;;;;;;;9.20;100.00;102117.56;5121775;27;20120;-72
2022/02/24 07:29:32;;;;;;;14.75;9.93;;;;;;;9.40;100.00;102122.16;5135283;27;20401;-72
2022/02/24 07:32:17;;;;;;;13.13;9.45;;;;;;;9.12;100.00;102120.09;5130817;27;20030;-72
2022/02/24 07:35:04;;;;;;;14.68;10.30;;;;;;;9.53;100.00;102123.16;5136478;27;20023;-71
2022/02/24 07:37:50;;;;;;;16.58;10.07;;;;;;;8.66;100.00;102124.78;5135468;27;20105;-71
2022/02/24 07:40:36;;;;;;;15.65;10.32;;;;;;;9.21;100.00;102129.81;5120643;27;20019;-72
2022/02/24 07:43:22;;;;;;;13.07;9.68;;;;;;;8.68;100.00;102126.56;5135271;27;20027;-71
2022/02/24 07:46:07;;;;;;;21.02;12.80;;;;;;;9.70;100.00;102121.56;5136133;27;20030;-72
2022/02/24 07:48:53;;;;;;;15.60;10.38;;;;;;;9.67;100.00;102118.91;5134986;27;20050;-72
2022/02/24 07:51:39;;;;;;;12.45;9.00;;;;;;;9.32;100.00;102126.41;5135492;27;20026;-71
2022/02/24 07:54:25;;;;;;;14.15;9.93;;;;;;;9.80;100.00;102131.22;5134185;27;20102;-72
2022/02/24 07:57:11;;;;;;;14.32;9.90;;;;;;;9.08;100.00;102123.56;5135643;27;20019;-70
2022/02/24 07:59:56;;;;;;;16.48;10.30;;;;;;;9.10;100.00;102134.91;5134617;27;20043;-72
2022/02/24 08:02:45;;;;;;;13.27;9.93;;;;;;;9.04;100.00;102126.09;5135185;27;20046;-71
2022/02/24 08:05:31;;;;;;;15.20;10.45;;;;;;;9.01;100.00;102126.09;5134425;27;20023;-71
2022/02/24 08:08:17;;;;;;;12.93;8.80;;;;;;;9.12;100.00;102125.34;5135752;27;20155;-71
2022/02/24 08:11:02;;;;;;;14.38;9.60;;;;;;;9.00;100.00;102126.94;5134376;27;20095;-71
2022/02/24 08:13:48;;;;;;;11.95;8.52;;;;;;;9.65;100.00;102123.25;5135163;27;20023;-72
2022/02/24 08:16:34;;;;;;;14.52;9.48;;;;;;;9.71;100.00;102123.28;5134958;27;20033;-72
2022/02/24 08:19:20;;;;;;;10.95;7.82;;;;;;;9.79;100.00;102121.63;5134350;27;20030;-71
2022/02/24 08:22:05;;;;;;;10.98;8.05;;;;;;;9.82;100.00;102121.66;5134570;27;20015;-71
2022/02/24 08:24:51;;;;;;;13.10;8.18;;;;;;;10.21;100.00;102115.84;5134293;27;20038;-71
2022/02/24 08:27:39;;;;;;;12.60;8.52;;;;;;;9.84;100.00;102119.91;5134232;27;20037;-72
2022/02/24 08:30:24;;;;;;;13.18;7.93;;;;;;;10.31;100.00;102123.78;5134384;27;20346;-72
2022/02/24 08:33:11;;;;;;;10.93;7.35;;;;;;;9.86;100.00;102120.81;5134497;27;20027;-73
2022/02/24 08:35:57;;;;;;;11.02;7.78;;;;;;;9.82;100.00;102122.50;5134958;27;20042;-75
2022/02/24 08:38:43;;;;;;;12.60;7.53;;;;;;;9.86;100.00;102119.03;5120109;27;20031;-70
2022/02/24 08:41:28;;;;;;;12.85;8.50;;;;;;;10.35;100.00;102124.66;5132872;27;20026;-71
2022/02/24 08:44:14;;;;;;;10.25;7.85;;;;;;;9.73;100.00;102116.34;5119630;27;20031;-71
2022/02/24 08:47:00;;;;;;;9.73;7.07;;;;;;;9.94;100.00;102119.13;5120036;27;20015;-72
2022/02/24 08:49:46;;;;;;;9.05;6.65;;;;;;;10.30;100.00;102116.78;5119736;27;20023;-72
2022/02/24 08:52:32;;;;;;;11.32;7.72;;;;;;;10.49;100.00;102109.91;5134881;27;20034;-73
2022/02/24 08:55:18;;;;;;;9.43;6.95;;;;;;;10.68;100.00;102114.38;5119433;27;20489;-71
2022/02/24 08:58:05;;;;;;;11.52;7.40;;;;;;;10.65;100.00;102109.94;5135997;27;20023;-72
2022/02/24 09:00:51;;;;;;;10.50;7.43;;;;;;;10.76;100.00;102105.63;5133630;27;20126;-72
2022/02/24 09:03:37;;;;;;;10.27;7.60;;;;;;;11.44;100.00;102109.31;5133748;27;20060;-71
2022/02/24 09:06:22;;;;;;;8.00;6.32;;;;;;;11.22;100.00;102104.91;5118527;28;20031;-71
2022/02/24 09:09:08;;;;;;;10.07;8.07;;;;;;;11.34;100.00;102104.06;5134737;28;20034;-72
2022/02/24 09:11:55;;;;;;;9.95;7.30;;;;;;;10.46;100.00;102104.63;5138982;28;20051;-72
2022/02/24 09:14:44;;;;;;;9.32;6.60;;;;;;;11.18;100.00;102099.66;5136864;28;20047;-71
2022/02/24 09:17:31;;;;;;;9.40;6.13;;;;;;;10.66;100.00;102093.38;5136335;28;20019;-71
2022/02/24 09:20:21;;;;;;;8.15;6.35;;;;;;;11.15;100.00;102091.78;5135254;28;20038;-71
2022/02/24 09:23:08;;;;;;;7.78;6.07;;;;;;;11.00;100.00;102089.09;5121938;28;20108;-71
2022/02/24 09:25:54;;;;;;;10.38;5.88;;;;;;;11.25;100.00;102085.69;5136911;28;20027;-70
2022/02/24 09:28:40;;;;;;;8.25;5.85;;;;;;;11.16;100.00;102085.63;5134513;28;20100;-72
2022/02/24 09:31:27;;;;;;;8.27;6.05;;;;;;;11.33;100.00;102082.19;5132753;28;20328;-71
2022/02/24 09:34:12;;;;;;;9.10;6.55;;;;;;;11.48;100.00;102083.94;5134343;28;20469;-75
2022/02/24 09:36:59;;;;;;;7.78;5.30;;;;;;;11.55;100.00;102076.09;5135287;27;20119;-72
2022/02/24 09:39:45;;;;;;;7.90;5.15;;;;;;;11.32;100.00;102067.31;5138270;27;20027;-72
2022/02/24 09:42:31;;;;;;;9.05;5.95;;;;;;;12.00;100.00;102068.19;5137345;27;20111;-71
2022/02/24 09:45:17;;;;;;;10.25;6.03;;;;;;;11.28;100.00;102068.19;5137132;27;20061;-72
2022/02/24 09:48:05;;;;;;;9.55;5.30;;;;;;;11.47;100.00;102062.09;5123479;27;20031;-72
2022/02/24 09:50:52;;;;;;;32.63;23.52;;;;;;;11.46;100.00;102062.09;5137256;27;20108;-71
2022/02/24 09:53:38;;;;;;;13.82;8.35;;;;;;;11.84;99.96;102057.69;5122599;27;20114;-72
2022/02/24 09:56:29;;;;;;;6.82;5.10;;;;;;;11.89;97.93;102056.81;5137020;27;20055;-71
2022/02/24 09:59:14;;;;;;;7.05;4.93;;;;;;;12.37;97.36;102048.81;5123066;27;20047;-71
2022/02/24 10:02:02;;;;;;;7.43;5.30;;;;;;;12.43;94.98;102043.56;5123341;27;20521;-70
2022/02/24 10:05:11;;;;;;;7.65;4.72;;;;;;;11.58;86.18;102041.94;5122393;27;20049;-71
2022/02/24 10:08:09;;;;;;;9.15;5.22;;;;;;;11.52;88.53;102034.09;5128153;27;20075;-72
2022/02/24 10:10:57;;;;;;;7.78;4.93;;;;;;;11.46;91.71;102028.84;5138697;27;20125;-71
2022/02/24 10:14:02;;;;;;;7.38;5.30;;;;;;;11.71;89.46;102027.97;5138223;27;20050;-70
2022/02/24 10:17:02;;;;;;;10.90;5.78;;;;;;;11.32;92.05;102025.34;5138230;27;20086;-72
2022/02/24 10:19:48;;;;;;;9.00;5.47;;;;;;;11.27;98.34;102027.09;5138308;27;20027;-71
2022/02/24 10:22:34;;;;;;;9.35;5.78;;;;;;;11.03;100.00;102026.19;5138262;27;20023;-72
2022/02/24 10:25:22;;;;;;;12.50;5.40;;;;;;;11.35;100.00;102022.72;5137167;27;20031;-71
2022/02/24 10:28:28;;;;;;;9.13;5.47;;;;;;;11.22;100.00;102020.97;5137953;27;20077;-72
2022/02/24 10:31:18;;;;;;;7.00;5.05;;;;;;;11.04;100.00;102015.69;5137021;27;20122;-71
2022/02/24 10:34:06;;;;;;;7.00;4.32;;;;;;;10.64;100.00;102020.88;5138262;27;20059;-71
2022/02/24 10:36:52;;;;;;;7.75;4.97;;;;;;;10.57;100.00;102021.72;5138011;27;20023;-71
2022/02/24 10:39:38;;;;;;;19.17;13.98;;;;;;;10.59;100.00;102009.47;5137303;27;20064;-70
2022/02/24 10:42:24;;;;;;;10.95;6.18;;;;;;;10.61;100.00;102010.38;5136883;27;20030;-71
2022/02/24 10:45:13;;;;;;;7.75;5.20;;;;;;;10.77;100.00;102010.38;5138097;27;20106;-70
2022/02/24 10:48:02;;;;;;;6.85;5.15;;;;;;;10.93;98.10;102000.81;5137978;27;20531;-71
2022/02/24 10:50:56;;;;;;;8.02;5.22;;;;;;;11.41;97.06;101996.47;5122384;27;20103;-71
2022/02/24 10:53:42;;;;;;;8.43;5.68;;;;;;;11.40;93.31;101994.72;5136434;27;20023;-71
2022/02/24 10:56:29;;;;;;;13.70;5.45;;;;;;;11.34;92.95;101984.25;5137725;27;20441;-71
2022/02/24 10:59:30;;;;;;;8.80;5.72;;;;;;;11.87;88.26;101994.69;5135467;27;20102;-70
2022/02/24 11:02:16;;;;;;;12.82;4.88;;;;;;;11.63;81.20;101985.13;5136809;27;20459;-71
2022/02/24 11:05:01;;;;;;;8.63;3.83;;;;;;;11.58;77.99;101985.97;5137780;27;20066;-72
2022/02/24 11:07:47;;;;;;;10.32;4.40;;;;;;;11.53;75.50;101972.81;5137670;27;20383;-71
2022/02/24 11:10:35;;;;;;;8.00;4.22;;;;;;;12.49;73.23;101979.53;5135701;27;20447;-72
2022/02/24 11:13:21;;;;;;;6.93;4.88;;;;;;;12.73;72.75;101969.75;5121603;27;20117;-71
2022/02/24 11:16:07;;;;;;;10.82;6.75;;;;;;;13.14;70.35;101970.38;5136565;27;20023;-72
2022/02/24 11:18:54;;;;;;;8.55;4.70;;;;;;;13.04;68.66;101966.06;5106936;27;20030;-71
2022/02/24 11:21:42;;;;;;;9.23;4.40;;;;;;;12.89;68.41;101962.63;5137426;27;20088;-72
2022/02/24 11:24:28;;;;;;;7.65;5.60;;;;;;;13.11;68.34;101972.16;5136540;27;20092;-72
2022/02/24 11:27:26;;;;;;;9.68;4.68;;;;;;;12.86;70.07;101966.16;5121528;27;20041;-71
2022/02/24 11:30:26;;;;;;;5.47;4.10;;;;;;;12.23;65.42;101966.56;5121451;27;20408;-72
2022/02/24 11:33:15;;;;;;;9.00;5.20;;;;;;;11.69;67.89;101971.97;5136817;27;20065;-71
2022/02/24 11:36:16;;;;;;;5.40;4.07;;;;;;;12.05;65.71;101963.13;5121209;27;20034;-72
2022/02/24 11:39:17;;;;;;;5.72;4.22;;;;;;;12.92;61.82;101963.50;5136338;27;20106;-71
2022/02/24 11:42:03;;;;;;;7.63;4.43;;;;;;;13.75;60.91;101963.63;5136141;27;20100;-72
2022/02/24 11:44:49;;;;;;;6.85;3.95;;;;;;;13.38;56.98;101954.38;5136338;27;20027;-71
2022/02/24 11:47:56;;;;;;;10.13;5.15;;;;;;;13.01;58.98;101944.16;5135750;27;20027;-71
2022/02/24 11:50:44;;;;;;;15.85;5.10;;;;;;;12.74;59.11;101952.25;5136067;27;20023;-73
2022/02/24 11:53:35;;;;;;;10.45;4.35;;;;;;;12.48;60.62;101947.13;5135264;27;20023;-72
2022/02/24 11:56:22;;;;;;;7.47;4.68;;;;;;;12.28;60.06;101948.09;5121180;27;20034;-72
2022/02/24 11:59:08;;;;;;;8.43;4.72;;;;;;;12.27;60.95;101944.63;5135975;27;20057;-71
2022/02/24 12:01:59;;;;;;;13.77;5.93;;;;;;;11.79;61.36;101943.94;5134301;27;20183;-72
2022/02/24 12:04:47;;;;;;;7.90;5.50;;;;;;;11.80;62.55;101948.31;5135828;27;20396;-71
2022/02/24 12:07:33;;;;;;;7.57;5.22;;;;;;;11.83;63.04;101943.94;5135851;27;20486;-72
2022/02/24 12:10:19;;;;;;;8.05;5.15;;;;;;;12.25;61.46;101941.13;5135723;27;20118;-72
2022/02/24 12:13:26;;;;;;;9.60;5.75;;;;;;;12.59;62.82;101942.69;5134765;27;20042;-72
2022/02/24 12:16:14;;;;;;;11.60;7.15;;;;;;;12.58;61.36;101938.28;5135223;27;20031;-71
2022/02/24 12:18:59;;;;;;;11.02;6.90;;;;;;;12.13;62.67;101935.94;5135914;27;20114;-73
2022/02/24 12:21:47;;;;;;;11.73;9.32;;;;;;;12.81;60.81;101936.41;5134845;27;20030;-71
2022/02/24 12:24:33;;;;;;;11.13;6.88;;;;;;;12.04;63.27;101933.34;5119958;27;20031;-72
2022/02/24 12:27:26;;;;;;;12.25;7.13;;;;;;;12.49;61.27;101922.59;5135411;27;20037;-72
2022/02/24 12:30:15;;;;;;;10.40;5.20;;;;;;;12.06;60.31;101915.81;5135399;27;20035;-71
2022/02/24 12:33:07;;;;;;;9.55;5.32;;;;;;;11.76;60.79;101915.06;5135531;27;20388;-71
2022/02/24 12:35:53;;;;;;;7.55;5.25;;;;;;;12.35;59.49;101915.66;5133919;27;20049;-71
2022/02/24 12:38:41;;;;;;;6.60;5.20;;;;;;;11.77;58.47;101907.19;5136031;27;20083;-73
2022/02/24 12:41:27;;;;;;;11.88;6.20;;;;;;;11.68;58.39;101915.09;5135289;27;20096;-71
2022/02/24 12:44:21;;;;;;;8.85;5.93;;;;;;;11.70;59.40;101915.94;5105998;27;20019;-71
2022/02/24 12:47:06;;;;;;;10.35;5.80;;;;;;;11.88;59.47;101912.38;5120331;27;20375;-71